sensor_id;sensor_type;location;lat;lon;timestamp;temperature;humidity
19544;DHT22;9917;51.256;7.152;2022-09-30T00:01:58;8.00;99.90
19544;DHT22;9917;51.256;7.152;2022-09-30T00:04:24;8.60;99.90
19544;DHT22;9917;51.256;7.152;2022-09-30T00:06:52;8.50;99.90
19544;DHT22;9917;51.256;7.152;2022-09-30T00:09:18;8.10;99.90
19544;DHT22;9917;51.256;7.152;2022-09-30T00:11:44;7.90;99.90
19544;DHT22;9917;51.256;7.152;2022-09-30T00:14:14;7.90;99.90
19544;DHT22;9917;51.256;7.152;2022-09-30T00:16:40;7.90;99.90
19544;DHT22;9917;51.256;7.152;2022-09-30T00:19:06;7.90;99.90
19544;DHT22;9917;51.256;7.152;2022-09-30T00:21:32;7.90;99.90
19544;DHT22;9917;51.256;7.152;2022-09-30T00:24:00;7.80;99.90
19544;DHT22;9917;51.256;7.152;2022-09-30T00:26:26;7.70;99.90
19544;DHT22;9917;51.256;7.152;2022-09-30T00:28:54;8.40;99.90
19544;DHT22;9917;51.256;7.152;2022-09-30T00:31:22;7.70;99.90
19544;DHT22;9917;51.256;7.152;2022-09-30T00:33:48;7.80;99.90
19544;DHT22;9917;51.256;7.152;2022-09-30T00:36:14;7.50;99.90
19544;DHT22;9917;51.256;7.152;2022-09-30T00:38:40;8.10;99.90
19544;DHT22;9917;51.256;7.152;2022-09-30T00:41:07;7.60;99.90
19544;DHT22;9917;51.256;7.152;2022-09-30T00:43:40;7.50;99.90
19544;DHT22;9917;51.256;7.152;2022-09-30T00:46:10;7.50;99.90
19544;DHT22;9917;51.256;7.152;2022-09-30T00:48:39;7.70;99.90
19544;DHT22;9917;51.256;7.152;2022-09-30T00:51:05;7.60;99.90
19544;DHT22;9917;51.256;7.152;2022-09-30T00:53:35;7.60;99.90
19544;DHT22;9917;51.256;7.152;2022-09-30T00:56:08;7.50;99.90
19544;DHT22;9917;51.256;7.152;2022-09-30T00:58:39;7.50;99.90
19544;DHT22;9917;51.256;7.152;2022-09-30T01:01:06;8.20;99.90
19544;DHT22;9917;51.256;7.152;2022-09-30T01:03:35;7.50;99.90
19544;DHT22;9917;51.256;7.152;2022-09-30T01:06:03;7.50;99.90
19544;DHT22;9917;51.256;7.152;2022-09-30T01:08:30;7.50;99.90
19544;DHT22;9917;51.256;7.152;2022-09-30T01:10:56;7.40;99.90
19544;DHT22;9917;51.256;7.152;2022-09-30T01:13:24;7.40;99.90
19544;DHT22;9917;51.256;7.152;2022-09-30T01:16:01;8.00;99.90
19544;DHT22;9917;51.256;7.152;2022-09-30T01:18:39;7.40;99.90
19544;DHT22;9917;51.256;7.152;2022-09-30T01:24:17;7.50;99.90
19544;DHT22;9917;51.256;7.152;2022-09-30T01:27:04;7.50;99.90
19544;DHT22;9917;51.256;7.152;2022-09-30T01:30:03;7.50;99.90
19544;DHT22;9917;51.256;7.152;2022-09-30T01:32:58;7.60;99.90
19544;DHT22;9917;51.256;7.152;2022-09-30T01:35:35;7.40;99.90
19544;DHT22;9917;51.256;7.152;2022-09-30T01:38:09;7.40;99.90
19544;DHT22;9917;51.256;7.152;2022-09-30T01:40:43;8.20;99.90
19544;DHT22;9917;51.256;7.152;2022-09-30T01:43:16;7.40;99.90
19544;DHT22;9917;51.256;7.152;2022-09-30T01:45:48;7.40;99.90
19544;DHT22;9917;51.256;7.152;2022-09-30T01:48:24;8.30;99.90
19544;DHT22;9917;51.256;7.152;2022-09-30T01:50:54;7.40;99.90
19544;DHT22;9917;51.256;7.152;2022-09-30T01:53:26;7.30;99.90
19544;DHT22;9917;51.256;7.152;2022-09-30T01:55:58;7.30;99.90
19544;DHT22;9917;51.256;7.152;2022-09-30T01:58:31;7.40;99.90
19544;DHT22;9917;51.256;7.152;2022-09-30T02:01:03;8.20;99.90
19544;DHT22;9917;51.256;7.152;2022-09-30T02:03:33;7.20;99.90
19544;DHT22;9917;51.256;7.152;2022-09-30T02:06:04;7.30;99.90
19544;DHT22;9917;51.256;7.152;2022-09-30T02:08:37;7.10;99.90
19544;DHT22;9917;51.256;7.152;2022-09-30T02:11:08;7.10;99.90
19544;DHT22;9917;51.256;7.152;2022-09-30T02:13:39;7.10;99.90
19544;DHT22;9917;51.256;7.152;2022-09-30T02:16:10;7.00;99.90
19544;DHT22;9917;51.256;7.152;2022-09-30T02:18:40;6.90;99.90
19544;DHT22;9917;51.256;7.152;2022-09-30T02:21:08;6.90;99.90
19544;DHT22;9917;51.256;7.152;2022-09-30T02:23:38;6.90;99.90
19544;DHT22;9917;51.256;7.152;2022-09-30T02:26:08;6.80;99.90
19544;DHT22;9917;51.256;7.152;2022-09-30T02:28:40;7.60;99.90
19544;DHT22;9917;51.256;7.152;2022-09-30T02:31:08;6.80;99.90
19544;DHT22;9917;51.256;7.152;2022-09-30T02:33:38;6.80;99.90
19544;DHT22;9917;51.256;7.152;2022-09-30T02:36:09;6.90;99.90
19544;DHT22;9917;51.256;7.152;2022-09-30T02:38:43;6.90;99.90
19544;DHT22;9917;51.256;7.152;2022-09-30T02:41:11;7.00;99.90
19544;DHT22;9917;51.256;7.152;2022-09-30T02:43:39;7.00;99.90
19544;DHT22;9917;51.256;7.152;2022-09-30T02:46:09;6.90;99.90
19544;DHT22;9917;51.256;7.152;2022-09-30T02:48:45;6.90;99.90
19544;DHT22;9917;51.256;7.152;2022-09-30T02:51:18;6.80;99.90
19544;DHT22;9917;51.256;7.152;2022-09-30T02:53:51;6.70;99.90
19544;DHT22;9917;51.256;7.152;2022-09-30T02:56:23;6.80;99.90
19544;DHT22;9917;51.256;7.152;2022-09-30T02:58:52;7.50;99.90
19544;DHT22;9917;51.256;7.152;2022-09-30T03:01:19;7.70;99.90
19544;DHT22;9917;51.256;7.152;2022-09-30T03:03:49;6.80;99.90
19544;DHT22;9917;51.256;7.152;2022-09-30T03:06:16;6.80;99.90
19544;DHT22;9917;51.256;7.152;2022-09-30T03:08:42;6.70;99.90
19544;DHT22;9917;51.256;7.152;2022-09-30T03:11:12;6.70;99.90
19544;DHT22;9917;51.256;7.152;2022-09-30T03:17:00;6.70;99.90
19544;DHT22;9917;51.256;7.152;2022-09-30T03:19:42;6.60;99.90
19544;DHT22;9917;51.256;7.152;2022-09-30T03:22:29;6.60;99.90
19544;DHT22;9917;51.256;7.152;2022-09-30T03:25:10;6.50;99.90
19544;DHT22;9917;51.256;7.152;2022-09-30T03:27:47;6.50;99.90
19544;DHT22;9917;51.256;7.152;2022-09-30T03:30:18;6.40;99.90
19544;DHT22;9917;51.256;7.152;2022-09-30T03:32:55;6.50;99.90
19544;DHT22;9917;51.256;7.152;2022-09-30T03:35:29;6.90;99.90
19544;DHT22;9917;51.256;7.152;2022-09-30T03:38:00;6.40;99.90
19544;DHT22;9917;51.256;7.152;2022-09-30T03:40:35;6.70;99.90
19544;DHT22;9917;51.256;7.152;2022-09-30T03:43:05;6.40;99.90
19544;DHT22;9917;51.256;7.152;2022-09-30T03:45:35;7.30;99.90
19544;DHT22;9917;51.256;7.152;2022-09-30T03:48:04;6.50;99.90
19544;DHT22;9917;51.256;7.152;2022-09-30T03:50:34;6.50;99.90
19544;DHT22;9917;51.256;7.152;2022-09-30T03:53:01;6.50;99.90
19544;DHT22;9917;51.256;7.152;2022-09-30T03:55:27;6.50;99.90
19544;DHT22;9917;51.256;7.152;2022-09-30T03:57:53;6.50;99.90
19544;DHT22;9917;51.256;7.152;2022-09-30T04:00:19;6.50;99.90
19544;DHT22;9917;51.256;7.152;2022-09-30T04:02:45;6.40;99.90
19544;DHT22;9917;51.256;7.152;2022-09-30T04:05:11;7.30;99.90
19544;DHT22;9917;51.256;7.152;2022-09-30T04:07:38;6.40;99.90
19544;DHT22;9917;51.256;7.152;2022-09-30T04:10:04;7.30;99.90
19544;DHT22;9917;51.256;7.152;2022-09-30T04:12:30;6.40;99.90
19544;DHT22;9917;51.256;7.152;2022-09-30T04:14:56;6.40;99.90
19544;DHT22;9917;51.256;7.152;2022-09-30T04:17:21;6.50;99.90
19544;DHT22;9917;51.256;7.152;2022-09-30T04:19:48;6.60;99.90
19544;DHT22;9917;51.256;7.152;2022-09-30T04:22:14;6.70;99.90
19544;DHT22;9917;51.256;7.152;2022-09-30T04:24:41;7.30;99.90
19544;DHT22;9917;51.256;7.152;2022-09-30T04:27:07;6.80;99.90
19544;DHT22;9917;51.256;7.152;2022-09-30T04:29:32;6.70;99.90
19544;DHT22;9917;51.256;7.152;2022-09-30T04:31:58;6.70;99.90
19544;DHT22;9917;51.256;7.152;2022-09-30T04:34:24;6.60;99.90
19544;DHT22;9917;51.256;7.152;2022-09-30T04:36:49;6.50;99.90
19544;DHT22;9917;51.256;7.152;2022-09-30T04:39:15;6.50;99.90
19544;DHT22;9917;51.256;7.152;2022-09-30T04:41:42;6.50;99.90
19544;DHT22;9917;51.256;7.152;2022-09-30T04:44:08;7.00;99.90
19544;DHT22;9917;51.256;7.152;2022-09-30T04:46:34;6.40;99.90
19544;DHT22;9917;51.256;7.152;2022-09-30T04:49:01;6.40;99.90
19544;DHT22;9917;51.256;7.152;2022-09-30T04:51:26;6.50;99.90
19544;DHT22;9917;51.256;7.152;2022-09-30T04:53:52;6.50;99.90
19544;DHT22;9917;51.256;7.152;2022-09-30T04:56:18;6.50;99.90
19544;DHT22;9917;51.256;7.152;2022-09-30T04:58:45;6.40;99.90
19544;DHT22;9917;51.256;7.152;2022-09-30T05:01:12;6.30;99.90
19544;DHT22;9917;51.256;7.152;2022-09-30T05:03:38;6.40;99.90
19544;DHT22;9917;51.256;7.152;2022-09-30T05:06:05;6.30;99.90
19544;DHT22;9917;51.256;7.152;2022-09-30T05:08:31;6.10;99.90
19544;DHT22;9917;51.256;7.152;2022-09-30T05:10:58;6.20;99.90
19544;DHT22;9917;51.256;7.152;2022-09-30T05:13:25;6.70;99.90
19544;DHT22;9917;51.256;7.152;2022-09-30T05:15:52;6.20;99.90
19544;DHT22;9917;51.256;7.152;2022-09-30T05:18:18;6.10;99.90
19544;DHT22;9917;51.256;7.152;2022-09-30T05:20:44;6.10;99.90
19544;DHT22;9917;51.256;7.152;2022-09-30T05:23:09;6.10;99.90
19544;DHT22;9917;51.256;7.152;2022-09-30T05:25:35;6.20;99.90
19544;DHT22;9917;51.256;7.152;2022-09-30T05:28:01;6.20;99.90
19544;DHT22;9917;51.256;7.152;2022-09-30T05:30:27;6.20;99.90
19544;DHT22;9917;51.256;7.152;2022-09-30T05:32:54;6.10;99.90
19544;DHT22;9917;51.256;7.152;2022-09-30T05:35:20;6.10;99.90
19544;DHT22;9917;51.256;7.152;2022-09-30T05:37:45;6.10;99.90
19544;DHT22;9917;51.256;7.152;2022-09-30T05:40:11;6.10;99.90
19544;DHT22;9917;51.256;7.152;2022-09-30T05:42:37;6.10;99.90
19544;DHT22;9917;51.256;7.152;2022-09-30T05:45:03;6.00;99.90
19544;DHT22;9917;51.256;7.152;2022-09-30T05:47:29;6.00;99.90
19544;DHT22;9917;51.256;7.152;2022-09-30T05:49:56;6.80;99.90
19544;DHT22;9917;51.256;7.152;2022-09-30T05:52:21;6.20;99.90
19544;DHT22;9917;51.256;7.152;2022-09-30T05:54:47;6.30;99.90
19544;DHT22;9917;51.256;7.152;2022-09-30T05:57:13;6.60;99.90
19544;DHT22;9917;51.256;7.152;2022-09-30T05:59:38;7.00;99.90
19544;DHT22;9917;51.256;7.152;2022-09-30T06:02:04;6.40;99.90
19544;DHT22;9917;51.256;7.152;2022-09-30T06:04:30;6.40;99.90
19544;DHT22;9917;51.256;7.152;2022-09-30T06:06:57;6.50;99.90
19544;DHT22;9917;51.256;7.152;2022-09-30T06:09:23;6.60;99.90
19544;DHT22;9917;51.256;7.152;2022-09-30T06:11:49;7.10;99.90
19544;DHT22;9917;51.256;7.152;2022-09-30T06:14:15;7.30;99.90
19544;DHT22;9917;51.256;7.152;2022-09-30T06:16:40;6.70;99.90
19544;DHT22;9917;51.256;7.152;2022-09-30T06:19:06;6.70;99.90
19544;DHT22;9917;51.256;7.152;2022-09-30T06:21:32;6.50;99.90
19544;DHT22;9917;51.256;7.152;2022-09-30T06:23:59;6.40;99.90
19544;DHT22;9917;51.256;7.152;2022-09-30T06:26:25;6.30;99.90
19544;DHT22;9917;51.256;7.152;2022-09-30T06:28:50;7.00;99.90
19544;DHT22;9917;51.256;7.152;2022-09-30T06:31:16;6.40;99.90
19544;DHT22;9917;51.256;7.152;2022-09-30T06:33:42;6.80;99.90
19544;DHT22;9917;51.256;7.152;2022-09-30T06:36:08;6.40;99.90
19544;DHT22;9917;51.256;7.152;2022-09-30T06:38:34;7.00;99.90
19544;DHT22;9917;51.256;7.152;2022-09-30T06:41:02;6.90;99.90
19544;DHT22;9917;51.256;7.152;2022-09-30T06:43:28;6.60;99.90
19544;DHT22;9917;51.256;7.152;2022-09-30T06:45:54;6.70;99.90
19544;DHT22;9917;51.256;7.152;2022-09-30T06:48:20;6.70;99.90
19544;DHT22;9917;51.256;7.152;2022-09-30T06:50:46;6.70;99.90
19544;DHT22;9917;51.256;7.152;2022-09-30T06:53:12;6.80;99.90
19544;DHT22;9917;51.256;7.152;2022-09-30T06:55:38;6.80;99.90
19544;DHT22;9917;51.256;7.152;2022-09-30T06:58:05;6.90;99.90
19544;DHT22;9917;51.256;7.152;2022-09-30T07:00:31;6.90;99.90
19544;DHT22;9917;51.256;7.152;2022-09-30T07:02:57;7.00;99.90
19544;DHT22;9917;51.256;7.152;2022-09-30T07:05:23;7.10;99.90
19544;DHT22;9917;51.256;7.152;2022-09-30T07:07:48;7.30;99.90
19544;DHT22;9917;51.256;7.152;2022-09-30T07:10:14;7.30;99.90
19544;DHT22;9917;51.256;7.152;2022-09-30T07:12:40;7.40;99.90
19544;DHT22;9917;51.256;7.152;2022-09-30T07:15:08;7.40;99.90
19544;DHT22;9917;51.256;7.152;2022-09-30T07:17:34;7.30;99.90
19544;DHT22;9917;51.256;7.152;2022-09-30T07:20:00;7.30;99.90
19544;DHT22;9917;51.256;7.152;2022-09-30T07:22:26;7.30;99.90
19544;DHT22;9917;51.256;7.152;2022-09-30T07:24:52;7.40;99.90
19544;DHT22;9917;51.256;7.152;2022-09-30T07:27:18;8.30;99.90
19544;DHT22;9917;51.256;7.152;2022-09-30T07:29:44;10.20;99.90
19544;DHT22;9917;51.256;7.152;2022-09-30T07:32:11;12.00;99.90
19544;DHT22;9917;51.256;7.152;2022-09-30T07:34:37;13.80;99.90
19544;DHT22;9917;51.256;7.152;2022-09-30T07:37:03;15.40;99.90
19544;DHT22;9917;51.256;7.152;2022-09-30T07:39:29;16.70;99.90
19544;DHT22;9917;51.256;7.152;2022-09-30T07:41:55;17.50;99.90
19544;DHT22;9917;51.256;7.152;2022-09-30T07:44:21;18.20;98.90
19544;DHT22;9917;51.256;7.152;2022-09-30T07:46:47;18.90;96.20
19544;DHT22;9917;51.256;7.152;2022-09-30T07:49:15;19.70;94.50
19544;DHT22;9917;51.256;7.152;2022-09-30T07:51:42;20.60;91.30
19544;DHT22;9917;51.256;7.152;2022-09-30T07:54:11;21.50;87.60
19544;DHT22;9917;51.256;7.152;2022-09-30T07:56:38;22.30;81.80
19544;DHT22;9917;51.256;7.152;2022-09-30T07:59:04;23.40;78.60
19544;DHT22;9917;51.256;7.152;2022-09-30T08:01:31;24.40;72.90
19544;DHT22;9917;51.256;7.152;2022-09-30T08:03:59;25.30;68.30
19544;DHT22;9917;51.256;7.152;2022-09-30T08:06:28;25.90;63.50
19544;DHT22;9917;51.256;7.152;2022-09-30T08:08:56;26.30;60.90
19544;DHT22;9917;51.256;7.152;2022-09-30T08:11:24;26.60;57.30
19544;DHT22;9917;51.256;7.152;2022-09-30T08:13:51;27.10;57.30
19544;DHT22;9917;51.256;7.152;2022-09-30T08:16:17;27.30;55.60
19544;DHT22;9917;51.256;7.152;2022-09-30T08:18:43;27.40;54.20
19544;DHT22;9917;51.256;7.152;2022-09-30T08:21:09;27.50;54.40
19544;DHT22;9917;51.256;7.152;2022-09-30T08:23:36;28.40;52.90
19544;DHT22;9917;51.256;7.152;2022-09-30T08:26:03;29.20;52.10
19544;DHT22;9917;51.256;7.152;2022-09-30T08:28:29;29.60;50.10
19544;DHT22;9917;51.256;7.152;2022-09-30T08:30:55;30.10;50.30
19544;DHT22;9917;51.256;7.152;2022-09-30T08:33:20;30.80;47.60
19544;DHT22;9917;51.256;7.152;2022-09-30T08:35:46;31.10;47.00
19544;DHT22;9917;51.256;7.152;2022-09-30T08:38:12;31.60;45.60
19544;DHT22;9917;51.256;7.152;2022-09-30T08:40:52;31.40;44.00
19544;DHT22;9917;51.256;7.152;2022-09-30T08:43:25;31.50;43.80
19544;DHT22;9917;51.256;7.152;2022-09-30T08:46:01;31.80;43.70
19544;DHT22;9917;51.256;7.152;2022-09-30T08:48:40;31.80;43.70
19544;DHT22;9917;51.256;7.152;2022-09-30T08:51:21;32.60;43.10
19544;DHT22;9917;51.256;7.152;2022-09-30T08:53:50;32.90;41.20
19544;DHT22;9917;51.256;7.152;2022-09-30T08:56:22;33.00;41.10
19544;DHT22;9917;51.256;7.152;2022-09-30T08:58:50;33.10;41.00
19544;DHT22;9917;51.256;7.152;2022-09-30T09:01:22;33.40;40.10
19544;DHT22;9917;51.256;7.152;2022-09-30T09:03:48;33.50;40.20
19544;DHT22;9917;51.256;7.152;2022-09-30T09:06:20;33.00;39.00
19544;DHT22;9917;51.256;7.152;2022-09-30T09:08:57;32.60;39.60
19544;DHT22;9917;51.256;7.152;2022-09-30T09:11:37;32.50;40.20
19544;DHT22;9917;51.256;7.152;2022-09-30T09:14:20;33.20;39.80
19544;DHT22;9917;51.256;7.152;2022-09-30T09:17:00;33.50;38.50
19544;DHT22;9917;51.256;7.152;2022-09-30T09:19:35;33.60;37.90
19544;DHT22;9917;51.256;7.152;2022-09-30T09:22:02;33.50;38.10
19544;DHT22;9917;51.256;7.152;2022-09-30T09:24:29;33.50;38.20
19544;DHT22;9917;51.256;7.152;2022-09-30T09:27:00;33.50;38.30
19544;DHT22;9917;51.256;7.152;2022-09-30T09:29:41;33.30;38.40
19544;DHT22;9917;51.256;7.152;2022-09-30T09:32:13;33.10;37.80
19544;DHT22;9917;51.256;7.152;2022-09-30T09:34:39;33.00;38.40
19544;DHT22;9917;51.256;7.152;2022-09-30T09:37:11;33.30;38.10
19544;DHT22;9917;51.256;7.152;2022-09-30T09:39:58;30.20;38.90
19544;DHT22;9917;51.256;7.152;2022-09-30T09:42:38;29.90;41.50
19544;DHT22;9917;51.256;7.152;2022-09-30T09:45:11;31.30;40.50
19544;DHT22;9917;51.256;7.152;2022-09-30T09:47:39;32.80;39.00
19544;DHT22;9917;51.256;7.152;2022-09-30T09:50:13;34.10;37.20
19544;DHT22;9917;51.256;7.152;2022-09-30T09:53:10;35.40;36.90
19544;DHT22;9917;51.256;7.152;2022-09-30T09:55:38;35.70;35.80
19544;DHT22;9917;51.256;7.152;2022-09-30T09:58:08;34.90;35.10
19544;DHT22;9917;51.256;7.152;2022-09-30T10:00:35;34.60;36.00
19544;DHT22;9917;51.256;7.152;2022-09-30T10:03:03;34.70;36.40
19544;DHT22;9917;51.256;7.152;2022-09-30T10:05:31;35.40;35.30
19544;DHT22;9917;51.256;7.152;2022-09-30T10:08:09;36.10;34.80
19544;DHT22;9917;51.256;7.152;2022-09-30T10:10:46;36.10;34.10
19544;DHT22;9917;51.256;7.152;2022-09-30T10:13:21;35.50;33.90
19544;DHT22;9917;51.256;7.152;2022-09-30T10:15:48;34.00;36.10
19544;DHT22;9917;51.256;7.152;2022-09-30T10:18:21;34.60;35.80
19544;DHT22;9917;51.256;7.152;2022-09-30T10:20:54;35.10;34.60
19544;DHT22;9917;51.256;7.152;2022-09-30T10:23:24;33.50;35.20
19544;DHT22;9917;51.256;7.152;2022-09-30T10:25:56;33.90;35.90
19544;DHT22;9917;51.256;7.152;2022-09-30T10:28:25;34.30;35.10
19544;DHT22;9917;51.256;7.152;2022-09-30T10:30:54;32.40;36.40
19544;DHT22;9917;51.256;7.152;2022-09-30T10:33:26;32.20;36.90
19544;DHT22;9917;51.256;7.152;2022-09-30T10:36:04;32.80;36.70
19544;DHT22;9917;51.256;7.152;2022-09-30T10:38:31;33.30;36.30
19544;DHT22;9917;51.256;7.152;2022-09-30T10:40:57;34.30;35.80
19544;DHT22;9917;51.256;7.152;2022-09-30T10:43:29;33.40;35.00
19544;DHT22;9917;51.256;7.152;2022-09-30T10:45:56;32.10;36.40
19544;DHT22;9917;51.256;7.152;2022-09-30T10:48:23;33.40;36.70
19544;DHT22;9917;51.256;7.152;2022-09-30T10:50:49;34.60;35.20
19544;DHT22;9917;51.256;7.152;2022-09-30T10:53:20;33.30;34.00
19544;DHT22;9917;51.256;7.152;2022-09-30T10:55:46;31.30;36.80
19544;DHT22;9917;51.256;7.152;2022-09-30T10:58:24;30.70;38.20
19544;DHT22;9917;51.256;7.152;2022-09-30T11:00:58;32.40;37.20
19544;DHT22;9917;51.256;7.152;2022-09-30T11:03:32;33.20;35.80
19544;DHT22;9917;51.256;7.152;2022-09-30T11:05:59;33.20;35.30
19544;DHT22;9917;51.256;7.152;2022-09-30T11:08:29;32.80;35.50
19544;DHT22;9917;51.256;7.152;2022-09-30T11:11:01;33.50;35.10
19544;DHT22;9917;51.256;7.152;2022-09-30T11:13:30;34.40;33.60
19544;DHT22;9917;51.256;7.152;2022-09-30T11:16:11;33.50;33.40
19544;DHT22;9917;51.256;7.152;2022-09-30T11:18:43;32.30;35.60
19544;DHT22;9917;51.256;7.152;2022-09-30T11:21:15;31.30;36.10
19544;DHT22;9917;51.256;7.152;2022-09-30T11:23:44;32.50;35.70
19544;DHT22;9917;51.256;7.152;2022-09-30T11:26:18;33.80;33.90
19544;DHT22;9917;51.256;7.152;2022-09-30T11:28:53;34.10;34.20
19544;DHT22;9917;51.256;7.152;2022-09-30T11:31:29;34.20;32.60
19544;DHT22;9917;51.256;7.152;2022-09-30T11:34:07;34.40;33.10
19544;DHT22;9917;51.256;7.152;2022-09-30T11:36:42;35.30;33.10
19544;DHT22;9917;51.256;7.152;2022-09-30T11:42:17;33.70;32.50
19544;DHT22;9917;51.256;7.152;2022-09-30T11:44:46;31.50;34.60
19544;DHT22;9917;51.256;7.152;2022-09-30T11:50:13;33.30;34.80
19544;DHT22;9917;51.256;7.152;2022-09-30T11:52:48;34.60;32.60
19544;DHT22;9917;51.256;7.152;2022-09-30T11:55:40;33.80;32.90
19544;DHT22;9917;51.256;7.152;2022-09-30T11:58:09;32.80;33.30
19544;DHT22;9917;51.256;7.152;2022-09-30T12:00:40;32.60;33.00
19544;DHT22;9917;51.256;7.152;2022-09-30T12:03:12;33.70;33.70
19544;DHT22;9917;51.256;7.152;2022-09-30T12:05:43;35.70;31.50
19544;DHT22;9917;51.256;7.152;2022-09-30T12:08:13;36.20;30.70
19544;DHT22;9917;51.256;7.152;2022-09-30T12:10:44;37.00;31.50
19544;DHT22;9917;51.256;7.152;2022-09-30T12:13:15;37.50;30.00
19544;DHT22;9917;51.256;7.152;2022-09-30T12:15:43;36.40;29.90
19544;DHT22;9917;51.256;7.152;2022-09-30T12:18:12;34.40;31.40
19544;DHT22;9917;51.256;7.152;2022-09-30T12:20:42;34.80;31.80
19544;DHT22;9917;51.256;7.152;2022-09-30T12:23:16;34.20;31.70
19544;DHT22;9917;51.256;7.152;2022-09-30T12:25:48;34.00;31.70
19544;DHT22;9917;51.256;7.152;2022-09-30T12:28:26;33.00;32.50
19544;DHT22;9917;51.256;7.152;2022-09-30T12:30:59;32.40;33.30
19544;DHT22;9917;51.256;7.152;2022-09-30T12:33:43;31.80;32.80
19544;DHT22;9917;51.256;7.152;2022-09-30T12:36:30;29.40;35.70
19544;DHT22;9917;51.256;7.152;2022-09-30T12:39:29;29.60;35.50
19544;DHT22;9917;51.256;7.152;2022-09-30T12:42:24;29.80;35.40
19544;DHT22;9917;51.256;7.152;2022-09-30T12:45:17;30.10;35.70
19544;DHT22;9917;51.256;7.152;2022-09-30T12:47:48;29.50;36.40
19544;DHT22;9917;51.256;7.152;2022-09-30T12:50:19;30.90;36.10
19544;DHT22;9917;51.256;7.152;2022-09-30T12:52:45;31.30;34.90
19544;DHT22;9917;51.256;7.152;2022-09-30T12:55:20;30.40;35.00
19544;DHT22;9917;51.256;7.152;2022-09-30T12:57:48;30.20;36.90
19544;DHT22;9917;51.256;7.152;2022-09-30T13:00:16;31.70;34.90
19544;DHT22;9917;51.256;7.152;2022-09-30T13:02:44;31.20;34.50
19544;DHT22;9917;51.256;7.152;2022-09-30T13:05:52;31.60;34.50
19544;DHT22;9917;51.256;7.152;2022-09-30T13:08:42;30.20;35.40
19544;DHT22;9917;51.256;7.152;2022-09-30T13:11:31;30.70;36.10
19544;DHT22;9917;51.256;7.152;2022-09-30T13:14:02;30.20;35.70
19544;DHT22;9917;51.256;7.152;2022-09-30T13:16:58;29.80;35.40
19544;DHT22;9917;51.256;7.152;2022-09-30T13:19:31;30.50;35.40
19544;DHT22;9917;51.256;7.152;2022-09-30T13:25:13;31.60;35.40
19544;DHT22;9917;51.256;7.152;2022-09-30T13:27:41;33.10;34.70
19544;DHT22;9917;51.256;7.152;2022-09-30T13:30:31;33.00;35.10
19544;DHT22;9917;51.256;7.152;2022-09-30T13:35:50;34.20;32.80
19544;DHT22;9917;51.256;7.152;2022-09-30T13:38:17;34.10;31.60
19544;DHT22;9917;51.256;7.152;2022-09-30T13:40:46;33.80;33.20
19544;DHT22;9917;51.256;7.152;2022-09-30T13:43:19;30.30;34.50
19544;DHT22;9917;51.256;7.152;2022-09-30T13:45:48;27.20;38.50
19544;DHT22;9917;51.256;7.152;2022-09-30T13:48:17;25.50;41.20
19544;DHT22;9917;51.256;7.152;2022-09-30T13:50:46;24.70;42.20
19544;DHT22;9917;51.256;7.152;2022-09-30T13:53:20;23.70;43.70
19544;DHT22;9917;51.256;7.152;2022-09-30T13:55:49;22.00;46.50
19544;DHT22;9917;51.256;7.152;2022-09-30T13:58:33;21.00;48.90
19544;DHT22;9917;51.256;7.152;2022-09-30T14:01:04;21.40;49.40
19544;DHT22;9917;51.256;7.152;2022-09-30T14:03:47;22.00;48.80
19544;DHT22;9917;51.256;7.152;2022-09-30T14:06:26;22.50;48.20
19544;DHT22;9917;51.256;7.152;2022-09-30T14:09:10;23.10;46.70
19544;DHT22;9917;51.256;7.152;2022-09-30T14:11:56;22.50;46.80
19544;DHT22;9917;51.256;7.152;2022-09-30T14:14:40;22.30;47.80
19544;DHT22;9917;51.256;7.152;2022-09-30T14:20:17;23.10;46.40
19544;DHT22;9917;51.256;7.152;2022-09-30T14:22:50;21.20;49.00
19544;DHT22;9917;51.256;7.152;2022-09-30T14:25:17;21.10;49.70
19544;DHT22;9917;51.256;7.152;2022-09-30T14:27:58;20.30;51.40
19544;DHT22;9917;51.256;7.152;2022-09-30T14:30:26;20.20;52.70
19544;DHT22;9917;51.256;7.152;2022-09-30T14:32:54;21.40;51.10
19544;DHT22;9917;51.256;7.152;2022-09-30T14:35:23;22.80;48.60
19544;DHT22;9917;51.256;7.152;2022-09-30T14:37:52;24.00;46.90
19544;DHT22;9917;51.256;7.152;2022-09-30T14:40:23;23.30;45.20
19544;DHT22;9917;51.256;7.152;2022-09-30T14:42:51;21.70;47.90
19544;DHT22;9917;51.256;7.152;2022-09-30T14:45:22;21.40;49.70
19544;DHT22;9917;51.256;7.152;2022-09-30T14:47:50;21.30;50.60
19544;DHT22;9917;51.256;7.152;2022-09-30T14:50:18;21.50;51.70
19544;DHT22;9917;51.256;7.152;2022-09-30T14:52:47;22.20;49.50
19544;DHT22;9917;51.256;7.152;2022-09-30T14:55:25;23.40;47.40
19544;DHT22;9917;51.256;7.152;2022-09-30T14:57:52;23.60;46.30
19544;DHT22;9917;51.256;7.152;2022-09-30T15:00:23;23.10;46.60
19544;DHT22;9917;51.256;7.152;2022-09-30T15:02:54;22.30;47.70
19544;DHT22;9917;51.256;7.152;2022-09-30T15:05:24;22.50;48.50
19544;DHT22;9917;51.256;7.152;2022-09-30T15:07:50;22.60;47.90
19544;DHT22;9917;51.256;7.152;2022-09-30T15:10:18;23.60;47.10
19544;DHT22;9917;51.256;7.152;2022-09-30T15:12:47;24.00;45.80
19544;DHT22;9917;51.256;7.152;2022-09-30T15:15:27;23.90;47.30
19544;DHT22;9917;51.256;7.152;2022-09-30T15:17:56;24.20;45.00
19544;DHT22;9917;51.256;7.152;2022-09-30T15:20:27;24.40;46.40
19544;DHT22;9917;51.256;7.152;2022-09-30T15:22:54;24.90;45.60
19544;DHT22;9917;51.256;7.152;2022-09-30T15:25:21;24.90;43.90
19544;DHT22;9917;51.256;7.152;2022-09-30T15:27:47;24.80;44.70
19544;DHT22;9917;51.256;7.152;2022-09-30T15:30:25;24.50;44.70
19544;DHT22;9917;51.256;7.152;2022-09-30T15:32:58;23.80;45.30
19544;DHT22;9917;51.256;7.152;2022-09-30T15:35:24;23.00;46.30
19544;DHT22;9917;51.256;7.152;2022-09-30T15:37:50;22.20;47.20
19544;DHT22;9917;51.256;7.152;2022-09-30T15:40:19;21.60;48.40
19544;DHT22;9917;51.256;7.152;2022-09-30T15:42:54;21.10;49.70
19544;DHT22;9917;51.256;7.152;2022-09-30T15:45:29;20.20;51.30
19544;DHT22;9917;51.256;7.152;2022-09-30T15:47:57;20.00;52.80
19544;DHT22;9917;51.256;7.152;2022-09-30T15:50:39;19.90;52.80
19544;DHT22;9917;51.256;7.152;2022-09-30T15:53:14;19.60;53.00
19544;DHT22;9917;51.256;7.152;2022-09-30T15:55:41;19.40;53.70
19544;DHT22;9917;51.256;7.152;2022-09-30T15:58:32;19.10;54.80
19544;DHT22;9917;51.256;7.152;2022-09-30T16:01:12;19.00;55.30
19544;DHT22;9917;51.256;7.152;2022-09-30T16:03:46;18.90;55.90
19544;DHT22;9917;51.256;7.152;2022-09-30T16:06:14;18.80;55.90
19544;DHT22;9917;51.256;7.152;2022-09-30T16:08:42;18.80;56.50
19544;DHT22;9917;51.256;7.152;2022-09-30T16:11:11;18.90;57.30
19544;DHT22;9917;51.256;7.152;2022-09-30T16:13:42;18.90;56.70
19544;DHT22;9917;51.256;7.152;2022-09-30T16:16:17;18.90;55.50
19544;DHT22;9917;51.256;7.152;2022-09-30T16:18:44;18.70;55.70
19544;DHT22;9917;51.256;7.152;2022-09-30T16:21:28;18.60;56.30
19544;DHT22;9917;51.256;7.152;2022-09-30T16:23:55;18.50;56.70
19544;DHT22;9917;51.256;7.152;2022-09-30T16:26:27;18.40;56.40
19544;DHT22;9917;51.256;7.152;2022-09-30T16:28:53;18.40;58.40
19544;DHT22;9917;51.256;7.152;2022-09-30T16:31:22;18.40;59.00
19544;DHT22;9917;51.256;7.152;2022-09-30T16:33:48;18.40;57.80
19544;DHT22;9917;51.256;7.152;2022-09-30T16:36:14;18.40;58.90